Observation data for Northwest San Angelo on 07/13/2020      Previous  Date  Next       Current Mesonet Observations  Soil Data  Daily Summary Page  Observations in Plain Language
KASU 130500Z 18002KT 27/12 A2991 RMK A01 T02730122  RH  041%=      5-min Rain = 0
KASU 130505Z 18003KT 28/12 A2991 RMK A01 T02820119  RH  038%=      5-min Rain = 0
KASU 130510Z 17003KT 28/12 A2991 RMK A01 T02840120  RH  038%=      5-min Rain = 0
KASU 130515Z 17003KT 28/12 A2991 RMK A01 T02800122  RH  039%=      5-min Rain = 0
KASU 130520Z 17003KT 28/12 A2991 RMK A01 T02760123  RH  040%=      5-min Rain = 0
KASU 130525Z 17003KT 27/12 A2991 RMK A01 T02710123  RH  041%=      5-min Rain = 0
KASU 130530Z 16004KT 27/13 A2991 RMK A01 T02660125  RH  043%=      5-min Rain = 0
KASU 130535Z 17005KT 27/12 A2991 RMK A01 T02650123  RH  043%=      5-min Rain = 0
KASU 130540Z 18006KT 26/12 A2991 RMK A01 T02630121  RH  043%=      5-min Rain = 0
KASU 130545Z 17004KT 26/12 A2991 RMK A01 T02630119  RH  042%=      5-min Rain = 0
KASU 130550Z 17004KT 26/12 A2991 RMK A01 T02620118  RH  042%=      5-min Rain = 0
KASU 130555Z 18004KT 26/12 A2991 RMK A01 T02630117  RH  042%=      5-min Rain = 0
KASU 130600Z 18004KT 26/12 A2991 RMK A01 T02630116  RH  041%=      5-min Rain = 0
KASU 130605Z 18004KT 26/12 A2991 RMK A01 T02630115  RH  041%=      5-min Rain = 0
KASU 130610Z 18004KT 26/12 A2991 RMK A01 T02620116  RH  042%=      5-min Rain = 0
KASU 130615Z 18004KT 26/12 A2991 RMK A01 T02620117  RH  042%=      5-min Rain = 0
KASU 130620Z 18004KT 26/12 A2991 RMK A01 T02610117  RH  042%=      5-min Rain = 0
KASU 130625Z 19004KT 26/12 A2991 RMK A01 T02610116  RH  042%=      5-min Rain = 0
KASU 130630Z 18004KT 26/11 A2991 RMK A01 T02620113  RH  041%=      5-min Rain = 0
KASU 130635Z 17004KT 26/12 A2991 RMK A01 T02610116  RH  042%=      5-min Rain = 0
KASU 130640Z 17004KT 26/12 A2991 RMK A01 T02580117  RH  043%=      5-min Rain = 0
KASU 130645Z 17003KT 26/12 A2991 RMK A01 T02570116  RH  043%=      5-min Rain = 0
KASU 130650Z 18003KT 26/12 A2991 RMK A01 T02570115  RH  042%=      5-min Rain = 0
KASU 130655Z 18002KT 26/11 A2991 RMK A01 T02580113  RH  042%=      5-min Rain = 0
KASU 130700Z 17003KT 26/12 A2991 RMK A01 T02570115  RH  043%=      5-min Rain = 0
KASU 130705Z 18003KT 26/11 A2991 RMK A01 T02550114  RH  043%=      5-min Rain = 0
KASU 130710Z 19003KT 26/11 A2991 RMK A01 T02570111  RH  041%=      5-min Rain = 0
KASU 130715Z 20002KT 26/11 A2991 RMK A01 T02590112  RH  041%=      5-min Rain = 0
KASU 130720Z 21002KT 26/12 A2991 RMK A01 T02550115  RH  043%=      5-min Rain = 0
KASU 130725Z 20002KT 25/12 A2991 RMK A01 T02510115  RH  044%=      5-min Rain = 0
KASU 130730Z 18001KT 25/11 A2991 RMK A01 T02510114  RH  044%=      5-min Rain = 0
KASU 130735Z 16001KT 25/11 A2991 RMK A01 T02510112  RH  043%=      5-min Rain = 0
KASU 130740Z 17001KT 25/12 A2991 RMK A01 T02500117  RH  045%=      5-min Rain = 0
KASU 130745Z 20002KT 24/12 A2991 RMK A01 T02420121  RH  049%=      5-min Rain = 0
KASU 130750Z 18003KT 23/12 A2991 RMK A01 T02330117  RH  050%=      5-min Rain = 0
KASU 130755Z 18003KT 24/11 A2991 RMK A01 T02440110  RH  044%=      5-min Rain = 0
KASU 130800Z 20003KT 25/11 A2991 RMK A01 T02480109  RH  043%=      5-min Rain = 0
KASU 130805Z 21002KT 25/11 A2992 RMK A01 T02490111  RH  044%=      5-min Rain = 0
KASU 130810Z 21002KT 25/11 A2992 RMK A01 T02520108  RH  042%=      5-min Rain = 0
KASU 130815Z 20002KT 25/11 A2991 RMK A01 T02530107  RH  041%=      5-min Rain = 0
KASU 130820Z 21002KT 25/11 A2992 RMK A01 T02510111  RH  043%=      5-min Rain = 0
KASU 130825Z 21002KT 25/11 A2992 RMK A01 T02500110  RH  043%=      5-min Rain = 0
KASU 130830Z 19003KT 25/11 A2991 RMK A01 T02500109  RH  042%=      5-min Rain = 0
KASU 130835Z 19003KT 25/11 A2991 RMK A01 T02530109  RH  042%=      5-min Rain = 0
KASU 130840Z 21003KT 26/11 A2991 RMK A01 T02560108  RH  041%=      5-min Rain = 0
KASU 130845Z 23002KT 25/11 A2991 RMK A01 T02540110  RH  042%=      5-min Rain = 0
KASU 130850Z 23002KT 26/11 A2992 RMK A01 T02550110  RH  042%=      5-min Rain = 0
KASU 130855Z 22002KT 26/11 A2992 RMK A01 T02570109  RH  041%=      5-min Rain = 0
KASU 130900Z 21003KT 26/11 A2992 RMK A01 T02590110  RH  041%=      5-min Rain = 0
KASU 130905Z 21003KT 26/11 A2992 RMK A01 T02580111  RH  041%=      5-min Rain = 0
KASU 130910Z 21002KT 26/11 A2992 RMK A01 T02560112  RH  042%=      5-min Rain = 0
KASU 130915Z 21003KT 26/11 A2992 RMK A01 T02550112  RH  042%=      5-min Rain = 0
KASU 130920Z 22002KT 26/11 A2992 RMK A01 T02560112  RH  042%=      5-min Rain = 0
KASU 130925Z 20003KT 26/11 A2992 RMK A01 T02600112  RH  041%=      5-min Rain = 0
KASU 130930Z 19003KT 26/11 A2992 RMK A01 T02620112  RH  041%=      5-min Rain = 0
KASU 130935Z 19003KT 26/11 A2992 RMK A01 T02600112  RH  041%=      5-min Rain = 0
KASU 130940Z 20003KT 26/11 A2992 RMK A01 T02580114  RH  042%=      5-min Rain = 0
KASU 130945Z 20004KT 26/12 A2992 RMK A01 T02580116  RH  043%=      5-min Rain = 0
KASU 130950Z 19005KT 26/12 A2992 RMK A01 T02550116  RH  043%=      5-min Rain = 0
KASU 130955Z 18005KT 25/12 A2991 RMK A01 T02490116  RH  045%=      5-min Rain = 0
KASU 131000Z 18006KT 25/12 A2991 RMK A01 T02480117  RH  046%=      5-min Rain = 0
KASU 131005Z 18006KT 25/12 A2991 RMK A01 T02470118  RH  046%=      5-min Rain = 0
KASU 131010Z 18006KT 25/12 A2991 RMK A01 T02480120  RH  046%=      5-min Rain = 0
KASU 131015Z 18006KT 25/12 A2991 RMK A01 T02480120  RH  046%=      5-min Rain = 0
KASU 131020Z 18006KT 25/12 A2991 RMK A01 T02480120  RH  046%=      5-min Rain = 0
KASU 131025Z 19006KT 25/12 A2991 RMK A01 T02490120  RH  046%=      5-min Rain = 0
KASU 131030Z 18005KT 25/12 A2991 RMK A01 T02500120  RH  046%=      5-min Rain = 0
KASU 131035Z 17004KT 25/12 A2992 RMK A01 T02500120  RH  046%=      5-min Rain = 0
KASU 131040Z 18004KT 25/12 A2992 RMK A01 T02520120  RH  045%=      5-min Rain = 0
KASU 131045Z 18004KT 25/12 A2992 RMK A01 T02520120  RH  045%=      5-min Rain = 0
KASU 131050Z 17004KT 25/12 A2992 RMK A01 T02500121  RH  046%=      5-min Rain = 0
KASU 131055Z 16003KT 25/12 A2992 RMK A01 T02460124  RH  048%=      5-min Rain = 0
KASU 131100Z 14003KT 24/13 A2993 RMK A01 T02390126  RH  051%=      5-min Rain = 0
KASU 131105Z 14003KT 24/13 A2993 RMK A01 T02380126  RH  051%=      5-min Rain = 0
KASU 131110Z 14003KT 24/13 A2993 RMK A01 T02370127  RH  052%=      5-min Rain = 0
KASU 131115Z 15003KT 24/13 A2993 RMK A01 T02370127  RH  052%=      5-min Rain = 0
KASU 131120Z 14002KT 24/13 A2993 RMK A01 T02370127  RH  052%=      5-min Rain = 0
KASU 131125Z 13002KT 24/13 A2993 RMK A01 T02370127  RH  052%=      5-min Rain = 0
KASU 131130Z 13002KT 24/13 A2994 RMK A01 T02370128  RH  052%=      5-min Rain = 0
KASU 131135Z 15002KT 24/13 A2994 RMK A01 T02370127  RH  052%=      5-min Rain = 0
KASU 131140Z 17000KT 24/13 A2994 RMK A01 T02360128  RH  053%=      5-min Rain = 0
KASU 131145Z 17000KT 23/13 A2994 RMK A01 T02330129  RH  054%=      5-min Rain = 0
KASU 131150Z 00000KT 23/13 A2994 RMK A01 T02300130  RH  055%=      5-min Rain = 0
KASU 131155Z 00000KT 23/13 A2994 RMK A01 T02290131  RH  056%=      5-min Rain = 0
KASU 131200Z 00000KT 23/13 A2994 RMK A01 T02270132  RH  057%=      5-min Rain = 0
KASU 131205Z 27000KT 23/13 A2994 RMK A01 T02270134  RH  058%=      5-min Rain = 0
KASU 131210Z 28001KT 22/13 A2994 RMK A01 T02240134  RH  059%=      5-min Rain = 0
KASU 131215Z 29002KT 22/14 A2995 RMK A01 T02200135  RH  061%=      5-min Rain = 0
KASU 131220Z 30002KT 22/14 A2995 RMK A01 T02220136  RH  061%=      5-min Rain = 0
KASU 131225Z 27001KT 23/14 A2995 RMK A01 T02300140  RH  059%=      5-min Rain = 0
KASU 131230Z 22001KT 24/14 A2995 RMK A01 T02420140  RH  055%=      5-min Rain = 0
KASU 131235Z 22001KT 25/15 A2995 RMK A01 T02490146  RH  055%=      5-min Rain = 0
KASU 131240Z 20002KT 25/14 A2995 RMK A01 T02530144  RH  053%=      5-min Rain = 0
KASU 131245Z 18002KT 26/15 A2995 RMK A01 T02590145  RH  052%=      5-min Rain = 0
KASU 131250Z 15002KT 26/15 A2995 RMK A01 T02630147  RH  051%=      5-min Rain = 0
KASU 131255Z 16003KT 27/15 A2995 RMK A01 T02660147  RH  050%=      5-min Rain = 0
KASU 131300Z 18004KT 27/14 A2995 RMK A01 T02700144  RH  048%=      5-min Rain = 0
KASU 131305Z 18005KT 27/15 A2995 RMK A01 T02740146  RH  048%=      5-min Rain = 0
KASU 131310Z 18006KT 28/15 A2995 RMK A01 T02780149  RH  047%=      5-min Rain = 0
KASU 131315Z 18007G12KT 28/15 A2995 RMK A01 T02810151  RH  047%=      5-min Rain = 0
KASU 131320Z 19010KT 29/15 A2995 RMK A01 T02860153  RH  047%=      5-min Rain = 0
KASU 131325Z 18011G16KT 29/15 A2995 RMK A01 T02890154  RH  046%=      5-min Rain = 0
KASU 131330Z 18012G17KT 29/15 A2995 RMK A01 T02910154  RH  045%=      5-min Rain = 0
KASU 131335Z 19012KT 29/16 A2995 RMK A01 T02910155  RH  046%=      5-min Rain = 0
KASU 131340Z 19011KT 29/16 A2996 RMK A01 T02930157  RH  046%=      5-min Rain = 0
KASU 131345Z 19011G17KT 30/16 A2996 RMK A01 T02980157  RH  044%=      5-min Rain = 0
KASU 131350Z 19010G16KT 30/16 A2996 RMK A01 T03030159  RH  044%=      5-min Rain = 0
KASU 131355Z 20010KT 30/16 A2997 RMK A01 T03030159  RH  044%=      5-min Rain = 0
KASU 131400Z 21009KT 31/16 A2997 RMK A01 T03050159  RH  043%=      5-min Rain = 0
KASU 131405Z 20008KT 31/16 A2997 RMK A01 T03090161  RH  043%=      5-min Rain = 0
KASU 131410Z 21010KT 31/16 A2997 RMK A01 T03060158  RH  043%=      5-min Rain = 0
KASU 131415Z 21008KT 31/16 A2997 RMK A01 T03080160  RH  043%=      5-min Rain = 0
KASU 131420Z 21009KT 31/16 A2997 RMK A01 T03120161  RH  042%=      5-min Rain = 0
KASU 131425Z 20009G14KT 32/16 A2997 RMK A01 T03150162  RH  042%=      5-min Rain = 0
KASU 131430Z 21010KT 32/16 A2997 RMK A01 T03170163  RH  041%=      5-min Rain = 0
KASU 131435Z 21010G16KT 31/16 A2997 RMK A01 T03130161  RH  042%=      5-min Rain = 0
KASU 131440Z 20012G18KT 31/16 A2997 RMK A01 T03140162  RH  042%=      5-min Rain = 0
KASU 131445Z 21013KT 32/16 A2997 RMK A01 T03170161  RH  041%=      5-min Rain = 0
KASU 131450Z 20012KT 32/16 A2997 RMK A01 T03210162  RH  040%=      5-min Rain = 0
KASU 131455Z 19014G21KT 33/16 A2997 RMK A01 T03260161  RH  039%=      5-min Rain = 0
KASU 131500Z 20013G20KT 33/16 A2997 RMK A01 T03270161  RH  039%=      5-min Rain = 0
KASU 131505Z 21012KT 33/16 A2997 RMK A01 T03280161  RH  039%=      5-min Rain = 0
KASU 131510Z 20011G16KT 33/16 A2997 RMK A01 T03320161  RH  038%=      5-min Rain = 0
KASU 131515Z 21013KT 33/16 A2997 RMK A01 T03300160  RH  038%=      5-min Rain = 0
KASU 131520Z 19012G18KT 34/16 A2996 RMK A01 T03350161  RH  037%=      5-min Rain = 0
KASU 131525Z 19013G19KT 34/16 A2996 RMK A01 T03410160  RH  036%=      5-min Rain = 0
KASU 131530Z 19014KT 34/16 A2996 RMK A01 T03420160  RH  035%=      5-min Rain = 0
KASU 131535Z 18017G22KT 34/15 A2996 RMK A01 T03350154  RH  035%=      5-min Rain = 0
KASU 131540Z 20015G21KT 33/15 A2996 RMK A01 T03340153  RH  035%=      5-min Rain = 0
KASU 131545Z 20011G18KT 34/16 A2996 RMK A01 T03390156  RH  035%=      5-min Rain = 0
KASU 131550Z 21014G21KT 34/15 A2996 RMK A01 T03410152  RH  034%=      5-min Rain = 0
KASU 131555Z 20014KT 35/15 A2996 RMK A01 T03450153  RH  033%=      5-min Rain = 0
KASU 131600Z 21013G18KT 35/15 A2996 RMK A01 T03470154  RH  033%=      5-min Rain = 0
KASU 131605Z 20012KT 35/16 A2996 RMK A01 T03480155  RH  033%=      5-min Rain = 0
KASU 131610Z 21013G18KT 35/15 A2996 RMK A01 T03500154  RH  032%=      5-min Rain = 0
KASU 131615Z 20014G20KT 35/15 A2996 RMK A01 T03500150  RH  032%=      5-min Rain = 0
KASU 131620Z 19015G21KT 35/15 A2996 RMK A01 T03540151  RH  031%=      5-min Rain = 0
KASU 131625Z 21012G18KT 36/15 A2995 RMK A01 T03550152  RH  031%=      5-min Rain = 0
KASU 131630Z 20014G19KT 36/15 A2995 RMK A01 T03570150  RH  030%=      5-min Rain = 0
KASU 131635Z 21014G19KT 36/15 A2995 RMK A01 T03550151  RH  031%=      5-min Rain = 0
KASU 131640Z 21012G18KT 36/15 A2995 RMK A01 T03580151  RH  031%=      5-min Rain = 0
KASU 131645Z 20013G19KT 36/15 A2995 RMK A01 T03630152  RH  030%=      5-min Rain = 0
KASU 131650Z 19013G18KT 36/15 A2994 RMK A01 T03630150  RH  030%=      5-min Rain = 0
KASU 131655Z 19014KT 37/15 A2994 RMK A01 T03650151  RH  029%=      5-min Rain = 0
KASU 131700Z 20012G17KT 37/15 A2994 RMK A01 T03650151  RH  029%=      5-min Rain = 0
KASU 131705Z 21011G17KT 37/15 A2994 RMK A01 T03660149  RH  029%=      5-min Rain = 0
KASU 131710Z 21013G18KT 37/15 A2994 RMK A01 T03710146  RH  028%=      5-min Rain = 0
KASU 131715Z 20014KT 37/14 A2993 RMK A01 T03700144  RH  027%=      5-min Rain = 0
KASU 131720Z 20012G17KT 37/14 A2993 RMK A01 T03720144  RH  027%=      5-min Rain = 0
KASU 131725Z 18013KT 38/14 A2993 RMK A01 T03790144  RH  026%=      5-min Rain = 0
KASU 131730Z 20011G17KT 38/15 A2993 RMK A01 T03800145  RH  026%=      5-min Rain = 0
KASU 131735Z 20013G19KT 38/14 A2993 RMK A01 T03790140  RH  025%=      5-min Rain = 0
KASU 131740Z 20012G19KT 38/13 A2993 RMK A01 T03780134  RH  024%=      5-min Rain = 0
KASU 131745Z 19013G18KT 38/14 A2993 RMK A01 T03810139  RH  025%=      5-min Rain = 0
KASU 131750Z 20013G18KT 38/14 A2993 RMK A01 T03820142  RH  025%=      5-min Rain = 0
KASU 131755Z 19013G18KT 39/14 A2992 RMK A01 T03880137  RH  024%=      5-min Rain = 0
KASU 131800Z 17014G20KT 39/14 A2992 RMK A01 T03890140  RH  024%=      5-min Rain = 0
KASU 131805Z 18014KT 39/14 A2992 RMK A01 T03910141  RH  024%=      5-min Rain = 0
KASU 131810Z 18013G21KT 39/14 A2992 RMK A01 T03920140  RH  024%=      5-min Rain = 0
KASU 131815Z 18013G21KT 39/14 A2991 RMK A01 T03910140  RH  024%=      5-min Rain = 0
KASU 131820Z 19013G22KT 40/13 A2991 RMK A01 T03950132  RH  022%=      5-min Rain = 0
KASU 131825Z 21012G17KT 39/13 A2991 RMK A01 T03910130  RH  022%=      5-min Rain = 0
KASU 131830Z 19013G20KT 40/13 A2991 RMK A01 T04020131  RH  021%=      5-min Rain = 0
KASU 131835Z 20012G19KT 40/12 A2991 RMK A01 T03980119  RH  020%=      5-min Rain = 0
KASU 131840Z 19015G21KT 39/12 A2991 RMK A01 T03910119  RH  020%=      5-min Rain = 0
KASU 131845Z 18014G19KT 40/12 A2991 RMK A01 T03970122  RH  020%=      5-min Rain = 0
KASU 131850Z 18014G21KT 40/12 A299 RMK A01 T03960116  RH  020%=      5-min Rain = 0
KASU 131855Z 20015G20KT 40/12 A299 RMK A01 T03950116  RH  020%=      5-min Rain = 0
KASU 131900Z 20011G19KT 40/12 A299 RMK A01 T03970122  RH  020%=      5-min Rain = 0
KASU 131905Z 19015G20KT 41/11 A299 RMK A01 T04060112  RH  018%=      5-min Rain = 0
KASU 131910Z 19014G21KT 40/12 A299 RMK A01 T03990117  RH  019%=      5-min Rain = 0
KASU 131915Z 21013G19KT 40/11 A2989 RMK A01 T04010112  RH  019%=      5-min Rain = 0
KASU 131920Z 20011G19KT 41/12 A2989 RMK A01 T04080118  RH  019%=      5-min Rain = 0
KASU 131925Z 19014G19KT 41/11 A2989 RMK A01 T04110111  RH  018%=      5-min Rain = 0
KASU 131930Z 20013KT 41/11 A2989 RMK A01 T04110111  RH  017%=      5-min Rain = 0
KASU 131935Z 20012G19KT 41/11 A2989 RMK A01 T04090106  RH  017%=      5-min Rain = 0
KASU 131940Z 20011G21KT 42/10 A2988 RMK A01 T04170099  RH  016%=      5-min Rain = 0
KASU 131945Z 20012KT 42/11 A2988 RMK A01 T04170109  RH  017%=      5-min Rain = 0
KASU 131950Z 19015G22KT 42/11 A2988 RMK A01 T04190107  RH  016%=      5-min Rain = 0
KASU 131955Z 19014G19KT 42/11 A2988 RMK A01 T04160106  RH  016%=      5-min Rain = 0
KASU 132000Z 19014G19KT 42/11 A2987 RMK A01 T04150107  RH  017%=      5-min Rain = 0
KASU 132005Z 19014G21KT 42/11 A2987 RMK A01 T04190109  RH  017%=      5-min Rain = 0
KASU 132010Z 20014G20KT 42/09 A2987 RMK A01 T04160087  RH  014%=      5-min Rain = 0
KASU 132015Z 21013G19KT 42/08 A2987 RMK A01 T04180083  RH  014%=      5-min Rain = 0
KASU 132020Z 20012G20KT 42/09 A2987 RMK A01 T04160087  RH  015%=      5-min Rain = 0
KASU 132025Z 18013G21KT 42/09 A2987 RMK A01 T04150093  RH  015%=      5-min Rain = 0
KASU 132030Z 18012G17KT 41/09 A2987 RMK A01 T04120094  RH  015%=      5-min Rain = 0
KASU 132035Z 20012G21KT 42/10 A2986 RMK A01 T04170098  RH  016%=      5-min Rain = 0
KASU 132040Z 19013G18KT 42/10 A2986 RMK A01 T04240102  RH  015%=      5-min Rain = 0
KASU 132045Z 18014G19KT 42/10 A2986 RMK A01 T04190100  RH  016%=      5-min Rain = 0
KASU 132050Z 20015G21KT 42/09 A2986 RMK A01 T04200092  RH  015%=      5-min Rain = 0
KASU 132055Z 19013G19KT 42/09 A2986 RMK A01 T04220087  RH  014%=      5-min Rain = 0
KASU 132100Z 20014G20KT 42/09 A2985 RMK A01 T04160092  RH  015%=      5-min Rain = 0
KASU 132105Z 20012G19KT 42/09 A2985 RMK A01 T04170089  RH  015%=      5-min Rain = 0
KASU 132110Z 19012G20KT 43/09 A2985 RMK A01 T04250089  RH  014%=      5-min Rain = 0
KASU 132115Z 19013G20KT 42/09 A2985 RMK A01 T04230089  RH  014%=      5-min Rain = 0
KASU 132120Z 17013KT 42/09 A2985 RMK A01 T04240093  RH  014%=      5-min Rain = 0
KASU 132125Z 19012G21KT 43/09 A2984 RMK A01 T04250092  RH  014%=      5-min Rain = 0
KASU 132130Z 18013G18KT 43/09 A2984 RMK A01 T04250092  RH  014%=      5-min Rain = 0
KASU 132135Z 19010G20KT 42/09 A2984 RMK A01 T04230093  RH  015%=      5-min Rain = 0
KASU 132140Z 18011G17KT 42/09 A2984 RMK A01 T04230092  RH  014%=      5-min Rain = 0
KASU 132145Z 21012KT 43/08 A2984 RMK A01 T04250082  RH  013%=      5-min Rain = 0
KASU 132150Z 19011G18KT 42/09 A2984 RMK A01 T04230085  RH  014%=      5-min Rain = 0
KASU 132155Z 18012KT 43/09 A2984 RMK A01 T04250085  RH  014%=      5-min Rain = 0
KASU 132200Z 18013G18KT 43/08 A2984 RMK A01 T04280082  RH  013%=      5-min Rain = 0
KASU 132205Z 17017G23KT 42/08 A2984 RMK A01 T04240076  RH  013%=      5-min Rain = 0
KASU 132210Z 17013G20KT 42/08 A2983 RMK A01 T04240077  RH  013%=      5-min Rain = 0
KASU 132215Z 17009G17KT 43/08 A2983 RMK A01 T04250079  RH  013%=      5-min Rain = 0
KASU 132220Z 19012G17KT 43/08 A2983 RMK A01 T04300081  RH  013%=      5-min Rain = 0
KASU 132225Z 17014G20KT 43/08 A2983 RMK A01 T04270083  RH  013%=      5-min Rain = 0
KASU 132230Z 16010KT 42/08 A2983 RMK A01 T04240079  RH  013%=      5-min Rain = 0
KASU 132235Z 18014G21KT 43/08 A2983 RMK A01 T04260082  RH  013%=      5-min Rain = 0
KASU 132240Z 17012G18KT 42/08 A2983 RMK A01 T04220083  RH  014%=      5-min Rain = 0
KASU 132245Z 18014KT 43/08 A2982 RMK A01 T04270081  RH  013%=      5-min Rain = 0
KASU 132250Z 17011G18KT 42/08 A2982 RMK A01 T04230075  RH  013%=      5-min Rain = 0
KASU 132255Z 16014G20KT 42/08 A2982 RMK A01 T04230075  RH  013%=      5-min Rain = 0
KASU 132300Z 16012G17KT 42/07 A2982 RMK A01 T04210073  RH  013%=      5-min Rain = 0
KASU 132305Z 16013G19KT 42/07 A2982 RMK A01 T04220072  RH  013%=      5-min Rain = 0
KASU 132310Z 16013KT 42/07 A2982 RMK A01 T04210072  RH  013%=      5-min Rain = 0
KASU 132315Z 16014G20KT 42/07 A2981 RMK A01 T04210072  RH  013%=      5-min Rain = 0
KASU 132320Z 17014G19KT 42/07 A2981 RMK A01 T04200073  RH  013%=      5-min Rain = 0
KASU 132325Z 17013G19KT 42/07 A2981 RMK A01 T04190072  RH  013%=      5-min Rain = 0
KASU 132330Z 16013G18KT 42/07 A2981 RMK A01 T04190068  RH  012%=      5-min Rain = 0
KASU 132335Z 16013G18KT 42/07 A2981 RMK A01 T04190070  RH  013%=      5-min Rain = 0
KASU 132340Z 17012G18KT 42/07 A2981 RMK A01 T04200072  RH  013%=      5-min Rain = 0
KASU 132345Z 16012KT 42/07 A2981 RMK A01 T04180072  RH  013%=      5-min Rain = 0
KASU 132350Z 17012KT 42/07 A2981 RMK A01 T04180071  RH  013%=      5-min Rain = 0
KASU 132355Z 17014KT 42/07 A2981 RMK A01 T04150068  RH  013%=      5-min Rain = 0
KASU 140000Z 17013KT 41/07 A2981 RMK A01 T04140068  RH  013%=      5-min Rain = 0
KASU 140005Z 17012KT 41/07 A2981 RMK A01 T04130071  RH  013%=      5-min Rain = 0
KASU 140010Z 17012KT 41/07 A2981 RMK A01 T04130073  RH  013%=      5-min Rain = 0
KASU 140015Z 18013G18KT 41/07 A2981 RMK A01 T04110072  RH  013%=      5-min Rain = 0
KASU 140020Z 17011KT 41/07 A2981 RMK A01 T04120074  RH  013%=      5-min Rain = 0
KASU 140025Z 17012KT 41/07 A2981 RMK A01 T04090074  RH  014%=      5-min Rain = 0
KASU 140030Z 17012KT 41/07 A2981 RMK A01 T04080072  RH  014%=      5-min Rain = 0
KASU 140035Z 17011G16KT 41/07 A2981 RMK A01 T04070071  RH  014%=      5-min Rain = 0
KASU 140040Z 17011G16KT 41/07 A2981 RMK A01 T04050070  RH  014%=      5-min Rain = 0
KASU 140045Z 17012G17KT 40/06 A2981 RMK A01 T04030064  RH  013%=      5-min Rain = 0
KASU 140050Z 17011G16KT 40/07 A2981 RMK A01 T04020065  RH  013%=      5-min Rain = 0
KASU 140055Z 17011G17KT 40/07 A2981 RMK A01 T04000067  RH  014%=      5-min Rain = 0
KASU 140100Z 17010G15KT 40/07 A2981 RMK A01 T03980069  RH  014%=      5-min Rain = 0
KASU 140105Z 17011G18KT 40/07 A2981 RMK A01 T03960069  RH  014%=      5-min Rain = 0
KASU 140110Z 17010KT 39/07 A2981 RMK A01 T03940070  RH  014%=      5-min Rain = 0
KASU 140115Z 16010KT 39/07 A2981 RMK A01 T03920071  RH  015%=      5-min Rain = 0
KASU 140120Z 17009KT 39/07 A2981 RMK A01 T03890073  RH  015%=      5-min Rain = 0
KASU 140125Z 17008KT 39/07 A2981 RMK A01 T03850073  RH  015%=      5-min Rain = 0
KASU 140130Z 17008KT 38/07 A2981 RMK A01 T03820072  RH  016%=      5-min Rain = 0
KASU 140135Z 17008KT 38/07 A2981 RMK A01 T03790073  RH  016%=      5-min Rain = 0
KASU 140140Z 17008KT 38/07 A2981 RMK A01 T03760073  RH  016%=      5-min Rain = 0
KASU 140145Z 17008KT 37/07 A2981 RMK A01 T03740073  RH  016%=      5-min Rain = 0
KASU 140150Z 17008KT 37/07 A2981 RMK A01 T03690073  RH  017%=      5-min Rain = 0
KASU 140155Z 17007KT 37/07 A2981 RMK A01 T03660074  RH  017%=      5-min Rain = 0
KASU 140200Z 17007KT 36/08 A2981 RMK A01 T03630075  RH  018%=      5-min Rain = 0
KASU 140205Z 17007KT 36/08 A2981 RMK A01 T03610076  RH  018%=      5-min Rain = 0
KASU 140210Z 17007KT 36/08 A2981 RMK A01 T03580077  RH  018%=      5-min Rain = 0
KASU 140215Z 17007KT 36/08 A2982 RMK A01 T03560079  RH  019%=      5-min Rain = 0
KASU 140220Z 17006KT 35/08 A2982 RMK A01 T03520079  RH  019%=      5-min Rain = 0
KASU 140225Z 18006KT 35/08 A2982 RMK A01 T03460081  RH  020%=      5-min Rain = 0
KASU 140230Z 17006KT 34/08 A2982 RMK A01 T03430081  RH  021%=      5-min Rain = 0
KASU 140235Z 17006KT 34/08 A2982 RMK A01 T03420082  RH  021%=      5-min Rain = 0
KASU 140240Z 16006KT 34/08 A2982 RMK A01 T03400083  RH  021%=      5-min Rain = 0
KASU 140245Z 16005KT 34/09 A2982 RMK A01 T03370085  RH  022%=      5-min Rain = 0
KASU 140250Z 16004KT 33/09 A2983 RMK A01 T03270085  RH  023%=      5-min Rain = 0
KASU 140255Z 16004KT 32/08 A2983 RMK A01 T03220084  RH  023%=      5-min Rain = 0
KASU 140300Z 17004KT 32/08 A2983 RMK A01 T03220083  RH  023%=      5-min Rain = 0
KASU 140305Z 16004KT 32/08 A2984 RMK A01 T03210084  RH  024%=      5-min Rain = 0
KASU 140310Z 18003KT 32/08 A2984 RMK A01 T03190083  RH  024%=      5-min Rain = 0
KASU 140315Z 18003KT 32/08 A2984 RMK A01 T03180082  RH  024%=      5-min Rain = 0
KASU 140320Z 19003KT 32/08 A2984 RMK A01 T03190081  RH  024%=      5-min Rain = 0
KASU 140325Z 18004KT 32/08 A2984 RMK A01 T03170084  RH  024%=      5-min Rain = 0
KASU 140330Z 17004KT 32/09 A2984 RMK A01 T03150087  RH  025%=      5-min Rain = 0
KASU 140335Z 17004KT 31/09 A2985 RMK A01 T03120087  RH  026%=      5-min Rain = 0
KASU 140340Z 17004KT 31/09 A2985 RMK A01 T03070089  RH  027%=      5-min Rain = 0
KASU 140345Z 16004KT 30/09 A2985 RMK A01 T03020092  RH  028%=      5-min Rain = 0
KASU 140350Z 15005KT 30/09 A2986 RMK A01 T02960094  RH  029%=      5-min Rain = 0
KASU 140355Z 16004KT 30/09 A2986 RMK A01 T02970092  RH  029%=      5-min Rain = 0
KASU 140400Z 17004KT 30/09 A2986 RMK A01 T03020091  RH  028%=      5-min Rain = 0
KASU 140405Z 17004KT 31/09 A2986 RMK A01 T03050089  RH  027%=      5-min Rain = 0
KASU 140410Z 17005KT 31/09 A2987 RMK A01 T03060089  RH  027%=      5-min Rain = 0
KASU 140415Z 17005KT 30/09 A2987 RMK A01 T03030091  RH  028%=      5-min Rain = 0
KASU 140420Z 17004KT 30/09 A2987 RMK A01 T03010091  RH  028%=      5-min Rain = 0
KASU 140425Z 17003KT 30/09 A2987 RMK A01 T02960090  RH  029%=      5-min Rain = 0
KASU 140430Z 18003KT 29/09 A2987 RMK A01 T02920089  RH  029%=      5-min Rain = 0
KASU 140435Z 18003KT 29/09 A2988 RMK A01 T02890087  RH  029%=      5-min Rain = 0
KASU 140440Z 18003KT 29/09 A2988 RMK A01 T02890088  RH  029%=      5-min Rain = 0
KASU 140445Z 18002KT 29/09 A2988 RMK A01 T02890089  RH  030%=      5-min Rain = 0
KASU 140450Z 19002KT 29/09 A2988 RMK A01 T02880091  RH  030%=      5-min Rain = 0
KASU 140455Z 20002KT 29/09 A2988 RMK A01 T02870091  RH  030%=      5-min Rain = 0

Page generated in 0.012 seconds.